ESNV

Vilhelmina Airport

Sweden
METAR ESNV 280020Z AUTO 10003KT 9999 NCD 06/05 Q1030
Observed Flight Rules
May-28 @ 00:20 UTC (35 minutes ago) Visual Flight Rules
Wind Visibility Clouds
100° at 3 knots 10,000+ meters
  • Clear skies
Temperatures Readings
Current 6°C / 43°F
Dewpoint 5°C / 41°F
Humidity 93%
Altimeter 30.41" Hg
Pressure 1030 hPa
Elevation 348
METAR ESNV 280020Z AUTO 10003KT 9999 NCD 06/05 Q1030
Observed Flight Rules
May-28 @ 00:20 UTC
(35 minutes ago)
VFR
Wind Visibility
100° at 3 knots 10,000+ meters
Clouds
  • Clear skies
Temperature Dewpoint
6°C / 43°F 5°C / 41°F
Humidity Altimeter Pressure
93% 30.41" Hg 1030 hPa